sensor_id;sensor_type;location;lat;lon;timestamp;P1;durP1;ratioP1;P2;durP2;ratioP2
16669;SDS011;8448;52.034;5.158;2022-11-20T00:01:19;20.90;;;11.17;;
16669;SDS011;8448;52.034;5.158;2022-11-20T00:03:48;22.53;;;11.40;;
16669;SDS011;8448;52.034;5.158;2022-11-20T00:06:18;20.30;;;11.43;;
16669;SDS011;8448;52.034;5.158;2022-11-20T00:08:46;20.63;;;11.43;;
16669;SDS011;8448;52.034;5.158;2022-11-20T00:11:15;21.33;;;12.00;;
16669;SDS011;8448;52.034;5.158;2022-11-20T00:13:43;20.00;;;10.63;;
16669;SDS011;8448;52.034;5.158;2022-11-20T00:16:12;22.33;;;12.23;;
16669;SDS011;8448;52.034;5.158;2022-11-20T00:18:40;21.50;;;11.43;;
16669;SDS011;8448;52.034;5.158;2022-11-20T00:21:10;21.30;;;12.10;;
16669;SDS011;8448;52.034;5.158;2022-11-20T00:23:40;19.93;;;11.00;;
16669;SDS011;8448;52.034;5.158;2022-11-20T00:26:08;22.43;;;11.10;;
16669;SDS011;8448;52.034;5.158;2022-11-20T00:28:37;22.60;;;11.83;;
16669;SDS011;8448;52.034;5.158;2022-11-20T00:31:05;22.53;;;12.07;;
16669;SDS011;8448;52.034;5.158;2022-11-20T00:33:34;21.20;;;11.33;;
16669;SDS011;8448;52.034;5.158;2022-11-20T00:36:01;22.87;;;11.93;;
16669;SDS011;8448;52.034;5.158;2022-11-20T00:38:29;23.07;;;12.67;;
16669;SDS011;8448;52.034;5.158;2022-11-20T00:40:58;20.87;;;11.80;;
16669;SDS011;8448;52.034;5.158;2022-11-20T00:43:27;24.43;;;12.73;;
16669;SDS011;8448;52.034;5.158;2022-11-20T00:45:57;22.70;;;12.07;;
16669;SDS011;8448;52.034;5.158;2022-11-20T00:48:25;22.27;;;12.40;;
16669;SDS011;8448;52.034;5.158;2022-11-20T00:50:53;21.37;;;12.10;;
16669;SDS011;8448;52.034;5.158;2022-11-20T00:53:20;27.40;;;12.77;;
16669;SDS011;8448;52.034;5.158;2022-11-20T00:55:54;22.50;;;12.67;;
16669;SDS011;8448;52.034;5.158;2022-11-20T00:58:23;25.20;;;12.80;;
16669;SDS011;8448;52.034;5.158;2022-11-20T01:00:59;24.93;;;13.53;;
16669;SDS011;8448;52.034;5.158;2022-11-20T01:03:27;23.73;;;12.93;;
16669;SDS011;8448;52.034;5.158;2022-11-20T01:05:59;22.30;;;12.43;;
16669;SDS011;8448;52.034;5.158;2022-11-20T01:08:28;24.37;;;12.70;;
16669;SDS011;8448;52.034;5.158;2022-11-20T01:11:00;23.07;;;12.70;;
16669;SDS011;8448;52.034;5.158;2022-11-20T01:13:30;24.33;;;12.97;;
16669;SDS011;8448;52.034;5.158;2022-11-20T01:16:04;24.70;;;12.73;;
16669;SDS011;8448;52.034;5.158;2022-11-20T01:18:32;24.80;;;13.10;;
16669;SDS011;8448;52.034;5.158;2022-11-20T01:21:00;21.73;;;11.83;;
16669;SDS011;8448;52.034;5.158;2022-11-20T01:23:30;24.80;;;12.87;;
16669;SDS011;8448;52.034;5.158;2022-11-20T01:25:59;23.77;;;13.00;;
16669;SDS011;8448;52.034;5.158;2022-11-20T01:28:27;22.13;;;11.70;;
16669;SDS011;8448;52.034;5.158;2022-11-20T01:30:56;25.50;;;12.70;;
16669;SDS011;8448;52.034;5.158;2022-11-20T01:33:24;24.83;;;13.00;;
16669;SDS011;8448;52.034;5.158;2022-11-20T01:35:51;22.63;;;11.40;;
16669;SDS011;8448;52.034;5.158;2022-11-20T01:38:19;22.27;;;11.80;;
16669;SDS011;8448;52.034;5.158;2022-11-20T01:40:53;21.67;;;11.87;;
16669;SDS011;8448;52.034;5.158;2022-11-20T01:43:22;23.10;;;12.20;;
16669;SDS011;8448;52.034;5.158;2022-11-20T01:46:01;24.57;;;12.43;;
16669;SDS011;8448;52.034;5.158;2022-11-20T01:48:36;20.47;;;11.27;;
16669;SDS011;8448;52.034;5.158;2022-11-20T01:51:06;23.00;;;12.17;;
16669;SDS011;8448;52.034;5.158;2022-11-20T01:53:41;23.17;;;12.43;;
16669;SDS011;8448;52.034;5.158;2022-11-20T01:56:09;23.03;;;12.50;;
16669;SDS011;8448;52.034;5.158;2022-11-20T01:58:38;22.27;;;11.80;;
16669;SDS011;8448;52.034;5.158;2022-11-20T02:01:11;21.13;;;11.53;;
16669;SDS011;8448;52.034;5.158;2022-11-20T02:03:39;24.30;;;11.87;;
16669;SDS011;8448;52.034;5.158;2022-11-20T02:06:09;20.23;;;10.83;;
16669;SDS011;8448;52.034;5.158;2022-11-20T02:08:39;20.07;;;11.30;;
16669;SDS011;8448;52.034;5.158;2022-11-20T02:11:06;23.10;;;11.73;;
16669;SDS011;8448;52.034;5.158;2022-11-20T02:13:34;21.83;;;11.40;;
16669;SDS011;8448;52.034;5.158;2022-11-20T02:16:18;22.30;;;12.07;;
16669;SDS011;8448;52.034;5.158;2022-11-20T02:18:47;20.73;;;11.60;;
16669;SDS011;8448;52.034;5.158;2022-11-20T02:21:25;23.13;;;12.43;;
16669;SDS011;8448;52.034;5.158;2022-11-20T02:23:59;22.40;;;12.53;;
16669;SDS011;8448;52.034;5.158;2022-11-20T02:26:31;20.20;;;11.43;;
16669;SDS011;8448;52.034;5.158;2022-11-20T02:29:01;21.47;;;11.63;;
16669;SDS011;8448;52.034;5.158;2022-11-20T02:31:33;23.50;;;12.37;;
16669;SDS011;8448;52.034;5.158;2022-11-20T02:34:06;21.80;;;11.47;;
16669;SDS011;8448;52.034;5.158;2022-11-20T02:36:34;23.33;;;11.50;;
16669;SDS011;8448;52.034;5.158;2022-11-20T02:39:03;23.40;;;11.73;;
16669;SDS011;8448;52.034;5.158;2022-11-20T02:41:31;22.60;;;11.70;;
16669;SDS011;8448;52.034;5.158;2022-11-20T02:44:00;20.37;;;12.00;;
16669;SDS011;8448;52.034;5.158;2022-11-20T02:46:27;23.40;;;12.10;;
16669;SDS011;8448;52.034;5.158;2022-11-20T02:48:54;22.93;;;12.20;;
16669;SDS011;8448;52.034;5.158;2022-11-20T02:51:22;20.80;;;11.57;;
16669;SDS011;8448;52.034;5.158;2022-11-20T02:53:50;23.23;;;12.03;;
16669;SDS011;8448;52.034;5.158;2022-11-20T02:56:18;22.10;;;12.03;;
16669;SDS011;8448;52.034;5.158;2022-11-20T02:58:46;23.87;;;12.63;;
16669;SDS011;8448;52.034;5.158;2022-11-20T03:01:13;23.63;;;11.47;;
16669;SDS011;8448;52.034;5.158;2022-11-20T03:03:40;24.07;;;11.97;;
16669;SDS011;8448;52.034;5.158;2022-11-20T03:06:08;22.17;;;12.03;;
16669;SDS011;8448;52.034;5.158;2022-11-20T03:08:35;23.60;;;12.27;;
16669;SDS011;8448;52.034;5.158;2022-11-20T03:11:03;22.97;;;11.67;;
16669;SDS011;8448;52.034;5.158;2022-11-20T03:13:33;23.27;;;12.37;;
16669;SDS011;8448;52.034;5.158;2022-11-20T03:16:05;26.43;;;12.20;;
16669;SDS011;8448;52.034;5.158;2022-11-20T03:18:34;22.83;;;11.73;;
16669;SDS011;8448;52.034;5.158;2022-11-20T03:21:01;23.80;;;11.73;;
16669;SDS011;8448;52.034;5.158;2022-11-20T03:23:29;22.93;;;11.77;;
16669;SDS011;8448;52.034;5.158;2022-11-20T03:26:06;22.37;;;12.03;;
16669;SDS011;8448;52.034;5.158;2022-11-20T03:28:36;22.37;;;12.17;;
16669;SDS011;8448;52.034;5.158;2022-11-20T03:31:07;23.10;;;12.20;;
16669;SDS011;8448;52.034;5.158;2022-11-20T03:33:35;22.30;;;11.67;;
16669;SDS011;8448;52.034;5.158;2022-11-20T03:36:03;22.77;;;12.37;;
16669;SDS011;8448;52.034;5.158;2022-11-20T03:38:32;23.00;;;11.73;;
16669;SDS011;8448;52.034;5.158;2022-11-20T03:41:00;22.70;;;12.00;;
16669;SDS011;8448;52.034;5.158;2022-11-20T03:43:28;23.13;;;11.57;;
16669;SDS011;8448;52.034;5.158;2022-11-20T03:45:56;24.43;;;12.80;;
16669;SDS011;8448;52.034;5.158;2022-11-20T03:48:24;23.27;;;12.63;;
16669;SDS011;8448;52.034;5.158;2022-11-20T03:50:52;21.57;;;11.47;;
16669;SDS011;8448;52.034;5.158;2022-11-20T03:53:19;21.80;;;11.80;;
16669;SDS011;8448;52.034;5.158;2022-11-20T03:55:50;21.87;;;11.30;;
16669;SDS011;8448;52.034;5.158;2022-11-20T03:58:17;19.80;;;10.97;;
16669;SDS011;8448;52.034;5.158;2022-11-20T04:00:45;22.20;;;11.83;;
16669;SDS011;8448;52.034;5.158;2022-11-20T04:03:13;21.70;;;11.60;;
16669;SDS011;8448;52.034;5.158;2022-11-20T04:05:41;20.33;;;11.33;;
16669;SDS011;8448;52.034;5.158;2022-11-20T04:08:08;24.47;;;11.87;;
16669;SDS011;8448;52.034;5.158;2022-11-20T04:10:36;21.67;;;12.00;;
16669;SDS011;8448;52.034;5.158;2022-11-20T04:13:03;22.53;;;12.07;;
16669;SDS011;8448;52.034;5.158;2022-11-20T04:15:30;23.87;;;11.87;;
16669;SDS011;8448;52.034;5.158;2022-11-20T04:17:58;21.73;;;12.00;;
16669;SDS011;8448;52.034;5.158;2022-11-20T04:20:26;22.70;;;12.17;;
16669;SDS011;8448;52.034;5.158;2022-11-20T04:22:53;21.00;;;11.13;;
16669;SDS011;8448;52.034;5.158;2022-11-20T04:25:21;23.43;;;12.03;;
16669;SDS011;8448;52.034;5.158;2022-11-20T04:27:48;22.97;;;12.33;;
16669;SDS011;8448;52.034;5.158;2022-11-20T04:30:15;25.33;;;12.87;;
16669;SDS011;8448;52.034;5.158;2022-11-20T04:32:43;21.83;;;12.03;;
16669;SDS011;8448;52.034;5.158;2022-11-20T04:35:10;23.73;;;12.20;;
16669;SDS011;8448;52.034;5.158;2022-11-20T04:37:39;22.43;;;11.40;;
16669;SDS011;8448;52.034;5.158;2022-11-20T04:40:06;22.87;;;11.63;;
16669;SDS011;8448;52.034;5.158;2022-11-20T04:42:34;24.10;;;12.40;;
16669;SDS011;8448;52.034;5.158;2022-11-20T04:45:01;22.87;;;12.27;;
16669;SDS011;8448;52.034;5.158;2022-11-20T04:47:28;23.13;;;12.00;;
16669;SDS011;8448;52.034;5.158;2022-11-20T04:49:56;24.53;;;12.07;;
16669;SDS011;8448;52.034;5.158;2022-11-20T04:52:23;23.73;;;12.33;;
16669;SDS011;8448;52.034;5.158;2022-11-20T04:54:52;22.77;;;12.20;;
16669;SDS011;8448;52.034;5.158;2022-11-20T04:57:19;22.50;;;11.80;;
16669;SDS011;8448;52.034;5.158;2022-11-20T04:59:47;21.53;;;11.47;;
16669;SDS011;8448;52.034;5.158;2022-11-20T05:02:14;28.33;;;13.23;;
16669;SDS011;8448;52.034;5.158;2022-11-20T05:04:41;23.07;;;12.63;;
16669;SDS011;8448;52.034;5.158;2022-11-20T05:07:09;22.23;;;11.80;;
16669;SDS011;8448;52.034;5.158;2022-11-20T05:09:36;24.93;;;12.07;;
16669;SDS011;8448;52.034;5.158;2022-11-20T05:12:06;24.17;;;11.27;;
16669;SDS011;8448;52.034;5.158;2022-11-20T05:14:34;25.00;;;12.70;;
16669;SDS011;8448;52.034;5.158;2022-11-20T05:17:01;23.90;;;12.53;;
16669;SDS011;8448;52.034;5.158;2022-11-20T05:19:28;23.53;;;12.13;;
16669;SDS011;8448;52.034;5.158;2022-11-20T05:21:56;25.47;;;12.73;;
16669;SDS011;8448;52.034;5.158;2022-11-20T05:24:23;22.43;;;12.27;;
16669;SDS011;8448;52.034;5.158;2022-11-20T05:26:50;21.40;;;11.73;;
16669;SDS011;8448;52.034;5.158;2022-11-20T05:29:19;23.97;;;12.23;;
16669;SDS011;8448;52.034;5.158;2022-11-20T05:31:46;22.93;;;12.27;;
16669;SDS011;8448;52.034;5.158;2022-11-20T05:34:14;24.83;;;12.50;;
16669;SDS011;8448;52.034;5.158;2022-11-20T05:36:41;22.93;;;12.77;;
16669;SDS011;8448;52.034;5.158;2022-11-20T05:39:08;21.80;;;12.13;;
16669;SDS011;8448;52.034;5.158;2022-11-20T05:41:36;24.63;;;13.85;;
16669;SDS011;8448;52.034;5.158;2022-11-20T05:44:03;23.67;;;11.63;;
16669;SDS011;8448;52.034;5.158;2022-11-20T05:46:32;24.33;;;12.53;;
16669;SDS011;8448;52.034;5.158;2022-11-20T05:48:59;23.73;;;11.57;;
16669;SDS011;8448;52.034;5.158;2022-11-20T05:51:27;22.30;;;11.40;;
16669;SDS011;8448;52.034;5.158;2022-11-20T05:53:55;19.90;;;11.63;;
16669;SDS011;8448;52.034;5.158;2022-11-20T05:56:23;24.33;;;12.07;;
16669;SDS011;8448;52.034;5.158;2022-11-20T05:58:51;21.33;;;11.50;;
16669;SDS011;8448;52.034;5.158;2022-11-20T06:01:19;22.67;;;11.70;;
16669;SDS011;8448;52.034;5.158;2022-11-20T06:03:49;24.97;;;12.97;;
16669;SDS011;8448;52.034;5.158;2022-11-20T06:06:17;22.90;;;12.13;;
16669;SDS011;8448;52.034;5.158;2022-11-20T06:08:45;24.77;;;16.13;;
16669;SDS011;8448;52.034;5.158;2022-11-20T06:11:12;24.77;;;13.87;;
16669;SDS011;8448;52.034;5.158;2022-11-20T06:13:41;25.60;;;12.80;;
16669;SDS011;8448;52.034;5.158;2022-11-20T06:16:09;26.00;;;13.47;;
16669;SDS011;8448;52.034;5.158;2022-11-20T06:18:37;23.27;;;12.33;;
16669;SDS011;8448;52.034;5.158;2022-11-20T06:21:06;24.93;;;12.70;;
16669;SDS011;8448;52.034;5.158;2022-11-20T06:23:34;22.80;;;12.77;;
16669;SDS011;8448;52.034;5.158;2022-11-20T06:26:02;25.33;;;13.07;;
16669;SDS011;8448;52.034;5.158;2022-11-20T06:28:31;23.07;;;12.03;;
16669;SDS011;8448;52.034;5.158;2022-11-20T06:30:58;22.23;;;12.23;;
16669;SDS011;8448;52.034;5.158;2022-11-20T06:33:26;23.30;;;12.93;;
16669;SDS011;8448;52.034;5.158;2022-11-20T06:35:55;25.17;;;13.10;;
16669;SDS011;8448;52.034;5.158;2022-11-20T06:38:24;22.87;;;12.13;;
16669;SDS011;8448;52.034;5.158;2022-11-20T06:40:52;24.53;;;12.40;;
16669;SDS011;8448;52.034;5.158;2022-11-20T06:43:20;24.70;;;12.80;;
16669;SDS011;8448;52.034;5.158;2022-11-20T06:45:51;21.77;;;12.30;;
16669;SDS011;8448;52.034;5.158;2022-11-20T06:48:18;22.30;;;12.30;;
16669;SDS011;8448;52.034;5.158;2022-11-20T06:50:46;23.30;;;12.70;;
16669;SDS011;8448;52.034;5.158;2022-11-20T06:53:13;23.37;;;12.73;;
16669;SDS011;8448;52.034;5.158;2022-11-20T06:55:43;24.27;;;12.87;;
16669;SDS011;8448;52.034;5.158;2022-11-20T06:58:11;27.30;;;13.30;;
16669;SDS011;8448;52.034;5.158;2022-11-20T07:00:38;24.03;;;12.70;;
16669;SDS011;8448;52.034;5.158;2022-11-20T07:03:06;24.03;;;13.33;;
16669;SDS011;8448;52.034;5.158;2022-11-20T07:05:35;24.93;;;13.17;;
16669;SDS011;8448;52.034;5.158;2022-11-20T07:08:03;26.13;;;13.83;;
16669;SDS011;8448;52.034;5.158;2022-11-20T07:10:31;25.37;;;13.70;;
16669;SDS011;8448;52.034;5.158;2022-11-20T07:13:00;27.70;;;14.30;;
16669;SDS011;8448;52.034;5.158;2022-11-20T07:15:27;25.37;;;13.23;;
16669;SDS011;8448;52.034;5.158;2022-11-20T07:17:54;22.00;;;12.37;;
16669;SDS011;8448;52.034;5.158;2022-11-20T07:20:24;26.30;;;13.57;;
16669;SDS011;8448;52.034;5.158;2022-11-20T07:22:53;24.03;;;12.73;;
16669;SDS011;8448;52.034;5.158;2022-11-20T07:25:21;25.10;;;13.37;;
16669;SDS011;8448;52.034;5.158;2022-11-20T07:27:48;24.80;;;12.50;;
16669;SDS011;8448;52.034;5.158;2022-11-20T07:30:16;25.90;;;13.47;;
16669;SDS011;8448;52.034;5.158;2022-11-20T07:32:46;24.97;;;13.20;;
16669;SDS011;8448;52.034;5.158;2022-11-20T07:35:13;27.37;;;14.00;;
16669;SDS011;8448;52.034;5.158;2022-11-20T07:37:41;26.97;;;14.23;;
16669;SDS011;8448;52.034;5.158;2022-11-20T07:40:08;25.50;;;13.43;;
16669;SDS011;8448;52.034;5.158;2022-11-20T07:42:37;26.97;;;13.83;;
16669;SDS011;8448;52.034;5.158;2022-11-20T07:45:04;25.03;;;13.87;;
16669;SDS011;8448;52.034;5.158;2022-11-20T07:47:35;25.30;;;13.70;;
16669;SDS011;8448;52.034;5.158;2022-11-20T07:50:03;27.03;;;14.53;;
16669;SDS011;8448;52.034;5.158;2022-11-20T07:52:32;28.73;;;13.97;;
16669;SDS011;8448;52.034;5.158;2022-11-20T07:55:00;25.33;;;14.03;;
16669;SDS011;8448;52.034;5.158;2022-11-20T07:57:27;30.03;;;14.67;;
16669;SDS011;8448;52.034;5.158;2022-11-20T07:59:54;28.07;;;14.17;;
16669;SDS011;8448;52.034;5.158;2022-11-20T08:02:21;24.50;;;14.50;;
16669;SDS011;8448;52.034;5.158;2022-11-20T08:04:50;28.27;;;14.83;;
16669;SDS011;8448;52.034;5.158;2022-11-20T08:07:17;26.90;;;15.10;;
16669;SDS011;8448;52.034;5.158;2022-11-20T08:09:45;27.70;;;14.60;;
16669;SDS011;8448;52.034;5.158;2022-11-20T08:12:15;26.80;;;14.43;;
16669;SDS011;8448;52.034;5.158;2022-11-20T08:15:01;26.23;;;14.47;;
16669;SDS011;8448;52.034;5.158;2022-11-20T08:17:29;28.23;;;15.17;;
16669;SDS011;8448;52.034;5.158;2022-11-20T08:19:58;27.67;;;15.50;;
16669;SDS011;8448;52.034;5.158;2022-11-20T08:22:25;29.00;;;15.60;;
16669;SDS011;8448;52.034;5.158;2022-11-20T08:24:53;28.43;;;15.20;;
16669;SDS011;8448;52.034;5.158;2022-11-20T08:27:20;27.13;;;15.33;;
16669;SDS011;8448;52.034;5.158;2022-11-20T08:29:47;29.93;;;15.73;;
16669;SDS011;8448;52.034;5.158;2022-11-20T08:32:14;27.07;;;15.00;;
16669;SDS011;8448;52.034;5.158;2022-11-20T08:34:42;29.33;;;16.57;;
16669;SDS011;8448;52.034;5.158;2022-11-20T08:37:10;30.00;;;16.23;;
16669;SDS011;8448;52.034;5.158;2022-11-20T08:39:38;33.53;;;16.60;;
16669;SDS011;8448;52.034;5.158;2022-11-20T08:42:06;29.77;;;16.40;;
16669;SDS011;8448;52.034;5.158;2022-11-20T08:44:33;30.63;;;16.30;;
16669;SDS011;8448;52.034;5.158;2022-11-20T08:47:01;31.03;;;16.30;;
16669;SDS011;8448;52.034;5.158;2022-11-20T08:49:28;31.20;;;16.90;;
16669;SDS011;8448;52.034;5.158;2022-11-20T08:51:56;29.83;;;17.47;;
16669;SDS011;8448;52.034;5.158;2022-11-20T08:54:25;31.20;;;16.80;;
16669;SDS011;8448;52.034;5.158;2022-11-20T08:56:52;30.23;;;16.80;;
16669;SDS011;8448;52.034;5.158;2022-11-20T08:59:19;33.57;;;18.57;;
16669;SDS011;8448;52.034;5.158;2022-11-20T09:01:47;32.03;;;18.17;;
16669;SDS011;8448;52.034;5.158;2022-11-20T09:04:14;30.37;;;17.67;;
16669;SDS011;8448;52.034;5.158;2022-11-20T09:06:41;30.83;;;17.30;;
16669;SDS011;8448;52.034;5.158;2022-11-20T09:09:08;31.50;;;18.30;;
16669;SDS011;8448;52.034;5.158;2022-11-20T09:11:37;30.50;;;17.20;;
16669;SDS011;8448;52.034;5.158;2022-11-20T09:14:04;32.73;;;17.30;;
16669;SDS011;8448;52.034;5.158;2022-11-20T09:16:32;29.93;;;17.00;;
16669;SDS011;8448;52.034;5.158;2022-11-20T09:18:59;31.17;;;18.17;;
16669;SDS011;8448;52.034;5.158;2022-11-20T09:21:26;32.77;;;19.03;;
16669;SDS011;8448;52.034;5.158;2022-11-20T09:23:53;32.97;;;18.30;;
16669;SDS011;8448;52.034;5.158;2022-11-20T09:26:21;31.37;;;17.60;;
16669;SDS011;8448;52.034;5.158;2022-11-20T09:28:49;32.43;;;18.47;;
16669;SDS011;8448;52.034;5.158;2022-11-20T09:31:19;28.17;;;17.10;;
16669;SDS011;8448;52.034;5.158;2022-11-20T09:33:49;29.53;;;17.43;;
16669;SDS011;8448;52.034;5.158;2022-11-20T09:36:17;28.33;;;16.87;;
16669;SDS011;8448;52.034;5.158;2022-11-20T09:38:44;26.90;;;16.23;;
16669;SDS011;8448;52.034;5.158;2022-11-20T09:41:17;26.40;;;16.43;;
16669;SDS011;8448;52.034;5.158;2022-11-20T09:44:11;31.13;;;16.60;;
16669;SDS011;8448;52.034;5.158;2022-11-20T09:46:45;30.27;;;18.37;;
16669;SDS011;8448;52.034;5.158;2022-11-20T09:49:18;40.40;;;25.30;;
16669;SDS011;8448;52.034;5.158;2022-11-20T09:51:51;30.13;;;17.83;;
16669;SDS011;8448;52.034;5.158;2022-11-20T09:54:25;31.77;;;18.10;;
16669;SDS011;8448;52.034;5.158;2022-11-20T09:56:54;30.27;;;17.33;;
16669;SDS011;8448;52.034;5.158;2022-11-20T09:59:31;29.40;;;17.93;;
16669;SDS011;8448;52.034;5.158;2022-11-20T10:02:02;29.90;;;17.53;;
16669;SDS011;8448;52.034;5.158;2022-11-20T10:04:34;35.13;;;22.27;;
16669;SDS011;8448;52.034;5.158;2022-11-20T10:07:04;41.43;;;24.47;;
16669;SDS011;8448;52.034;5.158;2022-11-20T10:09:38;33.43;;;18.77;;
16669;SDS011;8448;52.034;5.158;2022-11-20T10:12:11;33.93;;;21.00;;
16669;SDS011;8448;52.034;5.158;2022-11-20T10:14:45;34.00;;;19.83;;
16669;SDS011;8448;52.034;5.158;2022-11-20T10:17:22;32.17;;;19.27;;
16669;SDS011;8448;52.034;5.158;2022-11-20T10:20:02;36.40;;;20.13;;
16669;SDS011;8448;52.034;5.158;2022-11-20T10:22:44;41.70;;;24.40;;
16669;SDS011;8448;52.034;5.158;2022-11-20T10:25:19;63.90;;;37.23;;
16669;SDS011;8448;52.034;5.158;2022-11-20T10:27:56;39.17;;;24.07;;
16669;SDS011;8448;52.034;5.158;2022-11-20T10:30:52;41.67;;;24.43;;
16669;SDS011;8448;52.034;5.158;2022-11-20T10:33:23;34.27;;;21.17;;
16669;SDS011;8448;52.034;5.158;2022-11-20T10:35:54;32.20;;;18.97;;
16669;SDS011;8448;52.034;5.158;2022-11-20T10:38:26;33.53;;;21.30;;
16669;SDS011;8448;52.034;5.158;2022-11-20T10:40:57;34.30;;;21.13;;
16669;SDS011;8448;52.034;5.158;2022-11-20T10:43:41;34.27;;;20.63;;
16669;SDS011;8448;52.034;5.158;2022-11-20T10:46:10;29.13;;;18.73;;
16669;SDS011;8448;52.034;5.158;2022-11-20T10:48:40;31.63;;;19.23;;
16669;SDS011;8448;52.034;5.158;2022-11-20T10:51:15;33.30;;;20.27;;
16669;SDS011;8448;52.034;5.158;2022-11-20T10:53:54;34.37;;;19.47;;
16669;SDS011;8448;52.034;5.158;2022-11-20T10:56:27;33.90;;;20.07;;
16669;SDS011;8448;52.034;5.158;2022-11-20T10:59:07;34.43;;;19.90;;
16669;SDS011;8448;52.034;5.158;2022-11-20T11:01:55;36.77;;;21.70;;
16669;SDS011;8448;52.034;5.158;2022-11-20T11:04:33;35.70;;;21.50;;
16669;SDS011;8448;52.034;5.158;2022-11-20T11:07:06;37.43;;;22.53;;
16669;SDS011;8448;52.034;5.158;2022-11-20T11:09:37;35.67;;;21.57;;
16669;SDS011;8448;52.034;5.158;2022-11-20T11:12:07;36.43;;;21.13;;
16669;SDS011;8448;52.034;5.158;2022-11-20T11:14:42;37.83;;;22.37;;
16669;SDS011;8448;52.034;5.158;2022-11-20T11:17:26;44.20;;;25.73;;
16669;SDS011;8448;52.034;5.158;2022-11-20T11:19:58;38.13;;;22.60;;
16669;SDS011;8448;52.034;5.158;2022-11-20T11:22:28;43.97;;;25.23;;
16669;SDS011;8448;52.034;5.158;2022-11-20T11:24:56;39.30;;;22.20;;
16669;SDS011;8448;52.034;5.158;2022-11-20T11:27:23;38.63;;;21.73;;
16669;SDS011;8448;52.034;5.158;2022-11-20T11:29:50;42.15;;;27.80;;
16669;SDS011;8448;52.034;5.158;2022-11-20T11:32:39;38.57;;;24.30;;
16669;SDS011;8448;52.034;5.158;2022-11-20T11:35:18;45.87;;;27.80;;
16669;SDS011;8448;52.034;5.158;2022-11-20T11:37:47;48.50;;;27.73;;
16669;SDS011;8448;52.034;5.158;2022-11-20T11:40:16;42.73;;;23.70;;
16669;SDS011;8448;52.034;5.158;2022-11-20T11:42:46;47.83;;;27.47;;
16669;SDS011;8448;52.034;5.158;2022-11-20T11:45:16;47.07;;;24.67;;
16669;SDS011;8448;52.034;5.158;2022-11-20T11:47:45;44.90;;;24.63;;
16669;SDS011;8448;52.034;5.158;2022-11-20T11:50:17;50.97;;;29.90;;
16669;SDS011;8448;52.034;5.158;2022-11-20T11:52:51;43.13;;;24.40;;
16669;SDS011;8448;52.034;5.158;2022-11-20T11:55:26;47.77;;;26.27;;
16669;SDS011;8448;52.034;5.158;2022-11-20T11:57:59;47.67;;;24.73;;
16669;SDS011;8448;52.034;5.158;2022-11-20T12:00:31;47.87;;;26.07;;
16669;SDS011;8448;52.034;5.158;2022-11-20T12:03:03;48.73;;;26.10;;
16669;SDS011;8448;52.034;5.158;2022-11-20T12:05:36;59.90;;;31.43;;
16669;SDS011;8448;52.034;5.158;2022-11-20T12:08:10;56.33;;;29.73;;
16669;SDS011;8448;52.034;5.158;2022-11-20T12:10:43;61.67;;;30.87;;
16669;SDS011;8448;52.034;5.158;2022-11-20T12:13:15;51.87;;;26.43;;
16669;SDS011;8448;52.034;5.158;2022-11-20T12:15:57;58.60;;;27.87;;
16669;SDS011;8448;52.034;5.158;2022-11-20T12:18:26;81.00;;;40.67;;
16669;SDS011;8448;52.034;5.158;2022-11-20T12:20:58;59.27;;;31.30;;
16669;SDS011;8448;52.034;5.158;2022-11-20T12:23:33;64.10;;;29.50;;
16669;SDS011;8448;52.034;5.158;2022-11-20T12:26:07;54.23;;;26.30;;
16669;SDS011;8448;52.034;5.158;2022-11-20T12:28:41;63.30;;;27.93;;
16669;SDS011;8448;52.034;5.158;2022-11-20T12:31:21;61.63;;;28.23;;
16669;SDS011;8448;52.034;5.158;2022-11-20T12:33:57;62.07;;;31.37;;
16669;SDS011;8448;52.034;5.158;2022-11-20T12:36:34;64.43;;;32.23;;
16669;SDS011;8448;52.034;5.158;2022-11-20T12:39:15;55.90;;;28.17;;
16669;SDS011;8448;52.034;5.158;2022-11-20T12:41:51;58.07;;;29.20;;
16669;SDS011;8448;52.034;5.158;2022-11-20T12:45:01;59.37;;;29.20;;
16669;SDS011;8448;52.034;5.158;2022-11-20T12:47:47;69.37;;;34.10;;
16669;SDS011;8448;52.034;5.158;2022-11-20T12:50:30;64.20;;;32.43;;
16669;SDS011;8448;52.034;5.158;2022-11-20T12:53:04;61.73;;;30.70;;
16669;SDS011;8448;52.034;5.158;2022-11-20T12:55:36;60.40;;;29.20;;
16669;SDS011;8448;52.034;5.158;2022-11-20T12:58:10;60.50;;;32.33;;
16669;SDS011;8448;52.034;5.158;2022-11-20T13:00:43;66.80;;;34.60;;
16669;SDS011;8448;52.034;5.158;2022-11-20T13:03:24;67.50;;;35.43;;
16669;SDS011;8448;52.034;5.158;2022-11-20T13:06:08;67.37;;;35.87;;
16669;SDS011;8448;52.034;5.158;2022-11-20T13:08:39;60.77;;;30.20;;
16669;SDS011;8448;52.034;5.158;2022-11-20T13:11:09;62.57;;;31.70;;
16669;SDS011;8448;52.034;5.158;2022-11-20T13:13:42;56.40;;;29.33;;
16669;SDS011;8448;52.034;5.158;2022-11-20T13:16:14;58.60;;;30.30;;
16669;SDS011;8448;52.034;5.158;2022-11-20T13:18:43;81.40;;;42.67;;
16669;SDS011;8448;52.034;5.158;2022-11-20T13:21:16;63.17;;;32.93;;
16669;SDS011;8448;52.034;5.158;2022-11-20T13:23:45;54.33;;;28.93;;
16669;SDS011;8448;52.034;5.158;2022-11-20T13:26:16;66.10;;;33.87;;
16669;SDS011;8448;52.034;5.158;2022-11-20T13:28:45;67.33;;;33.93;;
16669;SDS011;8448;52.034;5.158;2022-11-20T13:31:25;60.40;;;30.10;;
16669;SDS011;8448;52.034;5.158;2022-11-20T13:33:56;61.37;;;31.43;;
16669;SDS011;8448;52.034;5.158;2022-11-20T13:36:26;62.70;;;33.33;;
16669;SDS011;8448;52.034;5.158;2022-11-20T13:38:55;64.87;;;33.80;;
16669;SDS011;8448;52.034;5.158;2022-11-20T13:41:24;70.67;;;35.47;;
16669;SDS011;8448;52.034;5.158;2022-11-20T13:43:57;62.63;;;33.40;;
16669;SDS011;8448;52.034;5.158;2022-11-20T13:46:34;66.83;;;34.50;;
16669;SDS011;8448;52.034;5.158;2022-11-20T13:49:06;74.50;;;37.30;;
16669;SDS011;8448;52.034;5.158;2022-11-20T13:51:39;71.37;;;36.57;;
16669;SDS011;8448;52.034;5.158;2022-11-20T13:54:22;68.87;;;34.40;;
16669;SDS011;8448;52.034;5.158;2022-11-20T13:57:08;61.83;;;32.47;;
16669;SDS011;8448;52.034;5.158;2022-11-20T13:59:46;61.87;;;32.03;;
16669;SDS011;8448;52.034;5.158;2022-11-20T14:02:20;65.37;;;33.43;;
16669;SDS011;8448;52.034;5.158;2022-11-20T14:04:48;63.47;;;32.07;;
16669;SDS011;8448;52.034;5.158;2022-11-20T14:07:19;65.40;;;33.10;;
16669;SDS011;8448;52.034;5.158;2022-11-20T14:09:49;70.47;;;32.83;;
16669;SDS011;8448;52.034;5.158;2022-11-20T14:12:19;65.00;;;31.73;;
16669;SDS011;8448;52.034;5.158;2022-11-20T14:14:48;64.10;;;31.10;;
16669;SDS011;8448;52.034;5.158;2022-11-20T14:17:17;60.90;;;31.17;;
16669;SDS011;8448;52.034;5.158;2022-11-20T14:19:51;67.10;;;33.40;;
16669;SDS011;8448;52.034;5.158;2022-11-20T14:22:21;71.07;;;32.87;;
16669;SDS011;8448;52.034;5.158;2022-11-20T14:25:01;67.80;;;32.20;;
16669;SDS011;8448;52.034;5.158;2022-11-20T14:27:32;67.00;;;33.13;;
16669;SDS011;8448;52.034;5.158;2022-11-20T14:30:00;71.43;;;33.27;;
16669;SDS011;8448;52.034;5.158;2022-11-20T14:32:29;77.13;;;33.97;;
16669;SDS011;8448;52.034;5.158;2022-11-20T14:34:58;69.97;;;34.87;;
16669;SDS011;8448;52.034;5.158;2022-11-20T14:37:31;69.67;;;33.17;;
16669;SDS011;8448;52.034;5.158;2022-11-20T14:40:02;75.77;;;33.90;;
16669;SDS011;8448;52.034;5.158;2022-11-20T14:42:31;79.63;;;34.97;;
16669;SDS011;8448;52.034;5.158;2022-11-20T14:44:59;72.60;;;34.57;;
16669;SDS011;8448;52.034;5.158;2022-11-20T14:47:27;76.37;;;35.10;;
16669;SDS011;8448;52.034;5.158;2022-11-20T14:49:55;70.83;;;33.67;;
16669;SDS011;8448;52.034;5.158;2022-11-20T14:52:24;80.27;;;35.60;;